createdAt,value
2022-07-27T00:02:32.287Z,18.80
2022-07-27T00:07:34.039Z,18.70
2022-07-27T00:12:37.655Z,18.60
2022-07-27T00:17:39.427Z,18.60
2022-07-27T00:22:41.765Z,18.60
2022-07-27T00:27:43.592Z,18.60
2022-07-27T00:32:45.963Z,18.50
2022-07-27T00:37:47.702Z,18.50
2022-07-27T00:42:49.470Z,18.40
2022-07-27T00:47:54.911Z,18.30
2022-07-27T00:52:57.054Z,18.30
2022-07-27T00:57:59.862Z,18.20
2022-07-27T01:03:02.542Z,18.20
2022-07-27T01:08:12.709Z,18.20
2022-07-27T01:13:16.702Z,18.20
2022-07-27T01:18:30.389Z,18.10
2022-07-27T01:23:32.934Z,18.00
2022-07-27T01:28:34.696Z,17.90
2022-07-27T01:33:37.212Z,17.90
2022-07-27T01:38:38.961Z,17.80
2022-07-27T01:43:41.073Z,17.70
2022-07-27T01:48:43.006Z,17.60
2022-07-27T01:53:44.745Z,17.60
2022-07-27T01:58:46.510Z,17.60
2022-07-27T02:03:48.255Z,17.60
2022-07-27T02:08:49.967Z,17.70
2022-07-27T02:13:51.690Z,17.60
2022-07-27T02:18:53.438Z,17.50
2022-07-27T02:23:55.137Z,17.50
2022-07-27T02:28:56.922Z,17.50
2022-07-27T02:33:58.655Z,17.40
2022-07-27T02:39:00.397Z,17.40
2022-07-27T02:44:02.114Z,17.20
2022-07-27T02:49:03.911Z,17.20
2022-07-27T02:54:05.763Z,17.30
2022-07-27T02:59:07.529Z,17.20
2022-07-27T03:04:09.606Z,17.10
2022-07-27T03:09:12.194Z,17.10
2022-07-27T03:14:14.136Z,17.10
2022-07-27T03:19:17.112Z,17.00
2022-07-27T03:24:18.851Z,16.80
2022-07-27T03:29:20.595Z,16.80
2022-07-27T03:34:22.316Z,16.80
2022-07-27T03:39:24.062Z,16.80
2022-07-27T03:44:25.758Z,16.70
2022-07-27T03:49:27.572Z,16.60
2022-07-27T03:54:29.434Z,16.50
2022-07-27T03:59:31.214Z,16.40
2022-07-27T04:04:33.039Z,16.50
2022-07-27T04:09:36.062Z,16.50
2022-07-27T04:14:37.821Z,16.50
2022-07-27T04:19:39.510Z,16.50
2022-07-27T04:24:41.208Z,16.50
2022-07-27T04:29:42.922Z,16.50
2022-07-27T04:34:44.618Z,16.70
2022-07-27T04:39:46.368Z,16.70
2022-07-27T04:44:48.100Z,16.80
2022-07-27T04:49:49.962Z,16.80
2022-07-27T04:54:53.211Z,16.90
2022-07-27T04:59:55.041Z,16.80
2022-07-27T05:04:56.943Z,16.90
2022-07-27T05:09:58.637Z,16.90
2022-07-27T05:15:00.346Z,16.90
2022-07-27T05:20:02.665Z,16.80
2022-07-27T05:25:04.973Z,16.80
2022-07-27T05:30:07.795Z,16.70
2022-07-27T05:35:10.276Z,16.80
2022-07-27T05:40:12.917Z,16.90
2022-07-27T05:45:15.453Z,16.90
2022-07-27T05:50:17.278Z,17.00
2022-07-27T05:55:19.047Z,16.90
2022-07-27T06:00:20.911Z,17.10
2022-07-27T06:05:22.960Z,17.20
2022-07-27T06:10:26.515Z,17.10
2022-07-27T06:15:28.365Z,16.80
2022-07-27T06:20:31.079Z,16.90
2022-07-27T06:25:34.284Z,17.10
2022-07-27T06:30:37.452Z,17.00
2022-07-27T06:35:39.305Z,17.20
2022-07-27T06:40:41.040Z,17.30
2022-07-27T06:45:42.741Z,17.30
2022-07-27T06:50:44.653Z,17.60
2022-07-27T06:55:46.478Z,17.60
2022-07-27T07:00:48.227Z,17.70
2022-07-27T07:05:50.185Z,18.00
2022-07-27T07:10:52.369Z,18.50
2022-07-27T07:15:54.265Z,18.40
2022-07-27T07:20:56.077Z,17.90
2022-07-27T07:25:57.811Z,18.30
2022-07-27T07:31:00.462Z,18.20
2022-07-27T07:36:11.957Z,18.50
2022-07-27T07:41:14.834Z,18.30
2022-07-27T07:46:16.678Z,18.40
2022-07-27T07:51:18.524Z,18.60
2022-07-27T07:56:20.317Z,18.50
2022-07-27T08:01:24.457Z,18.60
2022-07-27T08:06:26.295Z,19.20
2022-07-27T08:11:28.257Z,18.70
2022-07-27T08:16:30.281Z,18.70
2022-07-27T08:21:34.773Z,18.80
2022-07-27T08:26:37.347Z,18.90
2022-07-27T08:31:53.038Z,18.70
2022-07-27T08:36:56.414Z,19.20
2022-07-27T08:42:00.841Z,19.20
2022-07-27T08:47:02.977Z,18.80
2022-07-27T08:52:05.470Z,19.90
2022-07-27T08:57:09.021Z,20.20
2022-07-27T09:02:13.495Z,20.40
2022-07-27T09:07:29.564Z,20.30
2022-07-27T09:12:34.055Z,19.40
2022-07-27T09:17:52.275Z,19.60
2022-07-27T09:22:56.142Z,19.70
2022-07-27T09:27:59.357Z,20.10
2022-07-27T09:33:04.315Z,20.00
2022-07-27T09:38:23.229Z,19.90
2022-07-27T09:44:20.199Z,20.80
2022-07-27T09:48:47.255Z,20.80
2022-07-27T09:53:49.852Z,22.00
2022-07-27T09:58:56.641Z,20.30
2022-07-27T10:04:01.686Z,20.30
2022-07-27T10:09:03.918Z,20.00
2022-07-27T10:14:05.689Z,19.80
2022-07-27T10:19:29.428Z,20.40
2022-07-27T10:24:37.297Z,21.50
2022-07-27T10:29:39.372Z,21.60
2022-07-27T10:34:43.315Z,20.40
2022-07-27T10:40:13.803Z,20.00
2022-07-27T10:45:17.450Z,20.90
2022-07-27T10:50:20.231Z,22.10
2022-07-27T10:55:31.228Z,21.30
2022-07-27T11:00:55.197Z,20.70
2022-07-27T11:06:21.907Z,21.00
2022-07-27T11:11:26.189Z,21.40
2022-07-27T11:16:30.465Z,21.20
2022-07-27T11:21:37.019Z,21.10
2022-07-27T11:26:42.067Z,21.30
2022-07-27T11:31:55.836Z,20.70
2022-07-27T11:37:02.022Z,20.50
2022-07-27T11:42:12.032Z,21.00
2022-07-27T11:47:18.451Z,21.10
2022-07-27T11:52:20.214Z,21.40
2022-07-27T11:57:32.013Z,21.50
2022-07-27T12:02:33.892Z,21.00
2022-07-27T12:07:36.950Z,21.00
2022-07-27T12:12:38.733Z,20.90
2022-07-27T12:17:42.731Z,20.70
2022-07-27T12:22:46.011Z,21.20
2022-07-27T12:28:08.843Z,22.20
2022-07-27T12:33:31.433Z,22.20
2022-07-27T12:38:48.694Z,21.70
2022-07-27T12:44:12.122Z,21.80
2022-07-27T12:49:17.287Z,21.80
2022-07-27T12:54:20.215Z,22.40
2022-07-27T12:59:23.450Z,23.20
2022-07-27T13:04:25.204Z,23.00
2022-07-27T13:10:03.142Z,22.80
2022-07-27T13:14:48.713Z,23.20
2022-07-27T13:19:51.926Z,21.90
2022-07-27T13:24:53.778Z,22.10
2022-07-27T13:29:55.998Z,22.50
2022-07-27T13:34:57.854Z,22.90
2022-07-27T13:39:59.879Z,23.00
2022-07-27T13:45:09.304Z,22.70
2022-07-27T13:50:18.255Z,23.00
2022-07-27T13:55:26.203Z,23.00
2022-07-27T14:00:29.853Z,24.50
2022-07-27T14:05:31.711Z,24.70
2022-07-27T14:10:44.415Z,25.20
2022-07-27T14:15:54.528Z,25.40
2022-07-27T14:20:59.590Z,26.40
2022-07-27T14:26:03.431Z,25.10
2022-07-27T14:31:08.065Z,25.20
2022-07-27T14:36:10.039Z,25.20
2022-07-27T14:41:11.915Z,26.40
2022-07-27T14:46:13.829Z,24.20
2022-07-27T14:51:15.759Z,24.40
2022-07-27T14:56:17.707Z,24.00
2022-07-27T15:01:19.485Z,23.10
2022-07-27T15:06:21.296Z,24.30
2022-07-27T15:11:23.058Z,24.50
2022-07-27T15:16:24.885Z,24.30
2022-07-27T15:21:27.440Z,24.50
2022-07-27T15:26:29.148Z,25.00
2022-07-27T15:31:30.940Z,24.60
2022-07-27T15:36:35.326Z,25.30
2022-07-27T15:41:39.676Z,27.80
2022-07-27T15:46:41.453Z,27.20
2022-07-27T15:51:43.283Z,27.30
2022-07-27T15:56:45.269Z,24.90
2022-07-27T16:01:47.287Z,26.10
2022-07-27T16:06:49.129Z,25.40
2022-07-27T16:11:50.837Z,26.30
2022-07-27T16:16:52.541Z,26.90
2022-07-27T16:21:56.010Z,26.00
2022-07-27T16:26:58.010Z,25.80
2022-07-27T16:31:59.852Z,26.20
2022-07-27T16:37:01.641Z,25.40
2022-07-27T16:42:03.680Z,25.70
2022-07-27T16:47:06.902Z,25.30
2022-07-27T16:52:09.528Z,25.10
2022-07-27T16:57:11.528Z,25.30
2022-07-27T17:02:13.342Z,25.80
2022-07-27T17:07:15.106Z,25.30
2022-07-27T17:12:17.616Z,25.40
2022-07-27T17:17:20.803Z,25.10
2022-07-27T17:22:22.501Z,25.30
2022-07-27T17:27:24.314Z,25.10
2022-07-27T17:32:26.000Z,25.30
2022-07-27T17:37:38.569Z,24.80
2022-07-27T17:42:49.555Z,25.00
2022-07-27T17:47:51.489Z,24.80
2022-07-27T17:52:56.376Z,24.90
2022-07-27T17:57:58.069Z,24.10
2022-07-27T18:03:00.166Z,23.40
2022-07-27T18:08:01.941Z,23.00
2022-07-27T18:13:05.027Z,23.00
2022-07-27T18:18:06.820Z,22.60
2022-07-27T18:23:08.755Z,22.30
2022-07-27T18:28:10.493Z,22.20
2022-07-27T18:33:13.381Z,21.90
2022-07-27T18:38:16.669Z,21.80
2022-07-27T18:43:18.675Z,21.70
2022-07-27T18:48:20.370Z,21.50
2022-07-27T18:53:22.390Z,21.40
2022-07-27T18:58:24.635Z,21.30
2022-07-27T19:03:27.957Z,21.20
2022-07-27T19:08:29.802Z,21.00
2022-07-27T19:13:31.564Z,20.90
2022-07-27T19:18:33.419Z,20.80
2022-07-27T19:23:35.184Z,20.70
2022-07-27T19:28:38.185Z,20.60
2022-07-27T19:33:40.418Z,20.50
2022-07-27T19:38:42.233Z,20.40
2022-07-27T19:43:44.206Z,20.30
2022-07-27T19:48:46.064Z,20.10
2022-07-27T19:53:49.283Z,19.90
2022-07-27T19:58:51.009Z,19.80
2022-07-27T20:03:54.785Z,19.80
2022-07-27T20:08:59.749Z,19.60
2022-07-27T20:14:04.759Z,19.50
2022-07-27T20:19:06.634Z,19.40
2022-07-27T20:24:09.161Z,19.30
2022-07-27T20:29:12.649Z,19.20
2022-07-27T20:34:14.779Z,19.10
2022-07-27T20:39:17.712Z,19.00
2022-07-27T20:44:21.035Z,18.80
2022-07-27T20:49:23.242Z,18.70
2022-07-27T20:54:29.123Z,18.60
2022-07-27T20:59:33.132Z,18.50
2022-07-27T21:04:35.444Z,18.40
2022-07-27T21:09:37.436Z,18.30
2022-07-27T21:14:42.888Z,18.20
2022-07-27T21:19:44.664Z,18.00
2022-07-27T21:24:46.441Z,17.90
2022-07-27T21:29:50.868Z,17.80
2022-07-27T21:34:52.617Z,17.70
2022-07-27T21:39:54.332Z,17.60
2022-07-27T21:44:56.025Z,17.60
2022-07-27T21:49:57.807Z,17.60
2022-07-27T21:54:59.895Z,17.40
2022-07-27T22:00:01.867Z,17.20
2022-07-27T22:05:04.014Z,17.10
2022-07-27T22:10:06.194Z,17.00
2022-07-27T22:15:08.539Z,16.90
2022-07-27T22:20:10.682Z,16.80
2022-07-27T22:25:12.675Z,16.80
2022-07-27T22:30:15.359Z,16.70
2022-07-27T22:35:17.313Z,16.70
2022-07-27T22:40:19.058Z,16.60
2022-07-27T22:45:20.878Z,16.60
2022-07-27T22:50:23.152Z,16.40
2022-07-27T22:55:25.057Z,16.40
2022-07-27T23:00:26.760Z,16.30
2022-07-27T23:05:28.628Z,16.30
2022-07-27T23:10:45.741Z,16.20
2022-07-27T23:15:47.866Z,16.10
2022-07-27T23:20:49.739Z,16.00
2022-07-27T23:25:51.647Z,16.00
2022-07-27T23:30:53.360Z,16.00
2022-07-27T23:35:55.044Z,16.00
2022-07-27T23:40:56.736Z,15.90
2022-07-27T23:45:58.471Z,15.80
2022-07-27T23:51:00.222Z,15.80
2022-07-27T23:56:02.193Z,15.70
